createdAt,value
2023-04-18T00:02:28.929Z,11.03
2023-04-18T00:07:30.986Z,10.80
2023-04-18T00:12:34.257Z,12.33
2023-04-18T00:17:38.501Z,10.53
2023-04-18T00:22:45.062Z,10.83
2023-04-18T00:27:46.712Z,11.00
2023-04-18T00:32:48.462Z,12.17
2023-04-18T00:37:50.250Z,14.20
2023-04-18T00:42:51.899Z,13.27
2023-04-18T00:47:55.893Z,12.37
2023-04-18T00:52:58.313Z,14.07
2023-04-18T00:58:00.326Z,12.90
2023-04-18T01:03:02.153Z,13.50
2023-04-18T01:08:04.066Z,13.47
2023-04-18T01:13:19.455Z,13.60
2023-04-18T01:18:22.461Z,10.97
2023-04-18T01:23:24.197Z,11.40
2023-04-18T01:28:27.646Z,11.97
2023-04-18T01:33:29.505Z,11.47
2023-04-18T01:38:31.245Z,11.33
2023-04-18T01:43:32.944Z,13.17
2023-04-18T01:48:34.689Z,13.20
2023-04-18T01:53:36.368Z,13.03
2023-04-18T01:58:38.177Z,11.83
2023-04-18T02:03:40.273Z,12.53
2023-04-18T02:08:42.217Z,12.67
2023-04-18T02:13:43.860Z,13.03
2023-04-18T02:18:45.794Z,13.43
2023-04-18T02:23:47.498Z,13.33
2023-04-18T02:28:49.315Z,12.33
2023-04-18T02:33:50.981Z,12.90
2023-04-18T02:38:52.634Z,14.83
2023-04-18T02:43:54.861Z,14.83
2023-04-18T02:48:56.555Z,13.83
2023-04-18T02:53:58.272Z,14.70
2023-04-18T02:58:59.989Z,15.87
2023-04-18T03:04:01.747Z,15.73
2023-04-18T03:09:04.285Z,16.23
2023-04-18T03:14:06.001Z,15.30
2023-04-18T03:19:07.772Z,15.47
2023-04-18T03:24:11.971Z,19.40
2023-04-18T03:29:14.006Z,15.50
2023-04-18T03:34:15.916Z,16.77
2023-04-18T03:39:17.661Z,16.47
2023-04-18T03:44:19.444Z,16.83
2023-04-18T03:49:21.233Z,16.27
2023-04-18T03:54:22.994Z,17.63
2023-04-18T03:59:24.886Z,16.43
2023-04-18T04:04:26.675Z,19.37
2023-04-18T04:09:28.497Z,16.83
2023-04-18T04:14:30.409Z,19.93
2023-04-18T04:19:32.184Z,20.43
2023-04-18T04:24:33.967Z,22.00
2023-04-18T04:29:36.148Z,20.43
2023-04-18T04:34:37.920Z,22.13
2023-04-18T04:39:39.703Z,22.33
2023-04-18T04:44:42.915Z,24.23
2023-04-18T04:49:44.808Z,21.93
2023-04-18T04:54:46.637Z,21.13
2023-04-18T04:59:48.344Z,22.27
2023-04-18T05:04:50.420Z,23.70
2023-04-18T05:09:53.466Z,23.07
2023-04-18T05:14:55.316Z,25.17
2023-04-18T05:19:56.977Z,24.87
2023-04-18T05:24:58.733Z,22.90
2023-04-18T05:30:00.568Z,26.27
2023-04-18T05:35:02.270Z,25.07
2023-04-18T05:40:05.734Z,28.00
2023-04-18T05:45:08.074Z,26.53
2023-04-18T05:50:10.175Z,27.60
2023-04-18T05:55:11.907Z,28.47
2023-04-18T06:00:14.494Z,29.47
2023-04-18T06:05:16.696Z,27.60
2023-04-18T06:10:18.815Z,30.63
2023-04-18T06:15:20.515Z,33.27
2023-04-18T06:20:23.238Z,31.63
2023-04-18T06:25:25.061Z,29.50
2023-04-18T06:30:26.854Z,30.60
2023-04-18T06:35:30.816Z,33.97
2023-04-18T06:40:32.666Z,29.93
2023-04-18T06:45:35.062Z,28.93
2023-04-18T06:50:36.817Z,26.80
2023-04-18T06:55:38.578Z,28.07
2023-04-18T07:00:40.481Z,28.03
2023-04-18T07:05:42.199Z,27.60
2023-04-18T07:10:43.988Z,32.93
2023-04-18T07:15:45.784Z,30.20
2023-04-18T07:20:47.504Z,30.77
2023-04-18T07:25:49.702Z,34.33
2023-04-18T07:30:51.540Z,30.83
2023-04-18T07:35:53.369Z,32.70
2023-04-18T07:40:59.524Z,32.00
2023-04-18T07:46:01.412Z,28.97
2023-04-18T07:51:03.929Z,34.50
2023-04-18T07:56:06.077Z,30.47
2023-04-18T08:01:09.021Z,35.13
2023-04-18T08:06:10.710Z,34.00
2023-04-18T08:11:12.610Z,31.73
2023-04-18T08:16:16.387Z,30.17
2023-04-18T08:21:20.231Z,29.70
2023-04-18T08:26:22.221Z,30.03
2023-04-18T08:31:24.160Z,34.07
2023-04-18T08:36:26.036Z,30.17
2023-04-18T08:41:29.923Z,26.93
2023-04-18T08:46:35.823Z,30.43
2023-04-18T08:51:40.155Z,28.10
2023-04-18T08:56:42.236Z,31.70
2023-04-18T09:01:58.848Z,29.87
2023-04-18T09:07:01.372Z,29.50
2023-04-18T09:12:09.802Z,28.43
2023-04-18T09:17:21.851Z,28.50
2023-04-18T09:22:23.616Z,29.80
2023-04-18T09:27:25.387Z,29.57
2023-04-18T09:32:29.619Z,27.47
2023-04-18T09:37:31.591Z,28.43
2023-04-18T09:42:37.194Z,27.77
2023-04-18T09:47:39.669Z,28.80
2023-04-18T09:52:42.590Z,33.17
2023-04-18T09:57:46.996Z,25.73
2023-04-18T10:03:02.677Z,22.10
2023-04-18T10:08:04.909Z,21.57
2023-04-18T10:13:08.571Z,26.33
2023-04-18T10:18:15.074Z,22.77
2023-04-18T10:23:34.974Z,22.20
2023-04-18T10:28:56.572Z,26.07
2023-04-18T10:34:05.353Z,26.40
2023-04-18T10:39:25.573Z,28.97
2023-04-18T10:44:27.655Z,26.33
2023-04-18T10:49:32.903Z,31.03
2023-04-18T10:54:40.996Z,29.50
2023-04-18T10:59:44.827Z,36.10
2023-04-18T11:04:54.587Z,30.90
2023-04-18T11:09:57.113Z,32.87
2023-04-18T11:15:01.352Z,30.73
2023-04-18T11:20:08.765Z,33.00
2023-04-18T11:25:10.916Z,29.70
2023-04-18T11:30:14.210Z,28.20
2023-04-18T11:35:16.462Z,32.63
2023-04-18T11:40:18.344Z,28.77
2023-04-18T11:45:20.157Z,29.13
2023-04-18T11:50:21.929Z,31.50
2023-04-18T11:55:25.439Z,29.67
2023-04-18T12:00:38.652Z,29.10
2023-04-18T12:05:41.011Z,29.37
2023-04-18T12:10:47.405Z,27.80
2023-04-18T12:15:49.177Z,26.43
2023-04-18T12:20:54.012Z,28.50
2023-04-18T12:26:03.990Z,29.67
2023-04-18T12:31:07.388Z,29.80
2023-04-18T12:36:10.404Z,25.47
2023-04-18T12:41:12.644Z,27.67
2023-04-18T12:46:14.383Z,27.47
2023-04-18T12:51:16.098Z,26.80
2023-04-18T12:56:17.924Z,26.17
2023-04-18T13:01:19.943Z,28.03
2023-04-18T13:06:21.766Z,26.50
2023-04-18T13:11:28.338Z,26.50
2023-04-18T13:16:30.028Z,28.97
2023-04-18T13:21:31.797Z,30.10
2023-04-18T13:26:36.015Z,26.83
2023-04-18T13:31:37.845Z,26.40
2023-04-18T13:36:39.649Z,27.67
2023-04-18T13:41:41.980Z,23.57
2023-04-18T13:46:43.671Z,22.87
2023-04-18T13:51:46.231Z,25.20
2023-04-18T13:56:48.092Z,24.13
2023-04-18T14:01:50.014Z,21.97
2023-04-18T14:06:52.073Z,21.83
2023-04-18T14:11:53.883Z,20.17
2023-04-18T14:16:55.611Z,19.47
2023-04-18T14:21:57.353Z,24.27
2023-04-18T14:26:59.086Z,22.80
2023-04-18T14:32:00.795Z,23.37
2023-04-18T14:37:02.926Z,22.13
2023-04-18T14:42:04.970Z,21.93
2023-04-18T14:47:06.954Z,21.37
2023-04-18T14:52:08.694Z,23.07
2023-04-18T14:57:12.796Z,22.47
2023-04-18T15:02:14.555Z,22.03
2023-04-18T15:07:16.390Z,19.37
2023-04-18T15:12:18.168Z,21.43
2023-04-18T15:17:20.285Z,22.20
2023-04-18T15:22:22.869Z,20.03
2023-04-18T15:27:24.713Z,20.77
2023-04-18T15:32:26.672Z,21.07
2023-04-18T15:37:28.513Z,22.73
2023-04-18T15:42:30.457Z,24.10
2023-04-18T15:47:33.930Z,22.37
2023-04-18T15:52:36.558Z,25.13
2023-04-18T15:57:38.402Z,22.57
2023-04-18T16:02:40.163Z,24.23
2023-04-18T16:07:42.650Z,21.03
2023-04-18T16:12:45.039Z,20.40
2023-04-18T16:17:46.875Z,20.87
2023-04-18T16:22:48.576Z,21.67
2023-04-18T16:27:50.407Z,21.57
2023-04-18T16:32:52.346Z,18.07
2023-04-18T16:37:54.198Z,17.40
2023-04-18T16:42:56.444Z,13.60
2023-04-18T16:47:58.292Z,16.87
2023-04-18T16:52:59.997Z,15.77
2023-04-18T16:58:01.830Z,13.03
2023-04-18T17:03:03.749Z,11.93
2023-04-18T17:08:06.687Z,10.93
2023-04-18T17:13:08.408Z,9.40
2023-04-18T17:18:10.148Z,9.50
2023-04-18T17:23:11.882Z,9.37
2023-04-18T17:28:14.003Z,11.30
2023-04-18T17:33:15.792Z,10.37
2023-04-18T17:38:17.674Z,9.70
2023-04-18T17:43:19.441Z,9.77
2023-04-18T17:48:21.264Z,10.17
2023-04-18T17:53:23.304Z,10.33
2023-04-18T17:58:28.484Z,10.37
2023-04-18T18:03:30.399Z,11.93
2023-04-18T18:08:32.334Z,10.57
2023-04-18T18:13:35.350Z,10.70
2023-04-18T18:18:37.303Z,11.30
2023-04-18T18:23:39.076Z,9.93
2023-04-18T18:28:40.788Z,10.63
2023-04-18T18:33:42.519Z,10.40
2023-04-18T18:38:44.224Z,11.00
2023-04-18T18:43:45.891Z,11.23
2023-04-18T18:48:48.508Z,11.73
2023-04-18T18:53:50.636Z,11.80
2023-04-18T18:58:55.542Z,10.93
2023-04-18T19:03:57.361Z,10.07
2023-04-18T19:08:59.218Z,11.80
2023-04-18T19:14:01.025Z,12.80
2023-04-18T19:19:02.866Z,11.90
2023-04-18T19:24:04.917Z,12.10
2023-04-18T19:29:07.874Z,11.20
2023-04-18T19:34:10.265Z,11.23
2023-04-18T19:39:12.136Z,12.33
2023-04-18T19:44:13.923Z,14.20
2023-04-18T19:49:15.937Z,11.30
2023-04-18T19:54:20.286Z,14.63
2023-04-18T19:59:23.336Z,11.90
2023-04-18T20:04:26.020Z,13.10
2023-04-18T20:09:28.056Z,11.83
2023-04-18T20:14:29.983Z,11.77
2023-04-18T20:19:31.914Z,12.80
2023-04-18T20:24:34.717Z,10.93
2023-04-18T20:29:36.636Z,13.37
2023-04-18T20:34:38.631Z,11.80
2023-04-18T20:39:42.069Z,14.90
2023-04-18T20:44:44.733Z,15.83
2023-04-18T20:49:46.917Z,18.93
2023-04-18T20:54:48.607Z,19.53
2023-04-18T20:59:50.338Z,17.17
2023-04-18T21:04:52.388Z,17.33
2023-04-18T21:09:54.125Z,16.37
2023-04-18T21:14:55.861Z,13.57
2023-04-18T21:19:57.538Z,17.33
2023-04-18T21:24:59.330Z,17.50
2023-04-18T21:30:02.369Z,16.07
2023-04-18T21:35:06.549Z,15.10
2023-04-18T21:40:08.986Z,14.83
2023-04-18T21:45:11.149Z,13.77
2023-04-18T21:50:12.911Z,13.33
2023-04-18T21:55:14.577Z,15.90
2023-04-18T22:00:16.678Z,14.40
2023-04-18T22:05:18.456Z,15.40
2023-04-18T22:10:20.500Z,14.17
2023-04-18T22:15:22.561Z,16.07
2023-04-18T22:20:25.575Z,14.50
2023-04-18T22:25:27.401Z,13.80
2023-04-18T22:30:31.098Z,14.97
2023-04-18T22:35:32.848Z,13.10
2023-04-18T22:40:34.613Z,16.63
2023-04-18T22:45:36.469Z,14.17
2023-04-18T22:50:42.588Z,13.07
2023-04-18T22:55:45.411Z,14.17
2023-04-18T23:00:47.209Z,12.87
2023-04-18T23:05:48.937Z,12.30
2023-04-18T23:10:50.868Z,13.10
2023-04-18T23:15:52.678Z,15.37
2023-04-18T23:20:54.378Z,11.03
2023-04-18T23:25:56.132Z,12.53
2023-04-18T23:30:57.872Z,13.47
2023-04-18T23:36:00.007Z,11.00
2023-04-18T23:41:01.785Z,12.03
2023-04-18T23:46:03.635Z,12.03
2023-04-18T23:51:05.464Z,12.47
2023-04-18T23:56:07.323Z,12.83
